createdAt,value
2019-02-22T00:00:24.591Z,1024.82
2019-02-22T00:01:24.579Z,1024.82
2019-02-22T00:02:24.596Z,1024.79
2019-02-22T00:03:24.603Z,1024.82
2019-02-22T00:04:24.614Z,1024.81
2019-02-22T00:05:24.646Z,1024.82
2019-02-22T00:06:24.643Z,1024.83
2019-02-22T00:07:24.651Z,1024.87
2019-02-22T00:08:24.662Z,1024.87
2019-02-22T00:09:24.672Z,1024.86
2019-02-22T00:10:24.690Z,1024.88
2019-02-22T00:11:24.696Z,1024.90
2019-02-22T00:12:24.711Z,1024.92
2019-02-22T00:13:24.724Z,1024.89
2019-02-22T00:14:24.741Z,1024.90
2019-02-22T00:15:24.757Z,1024.87
2019-02-22T00:16:24.759Z,1024.91
2019-02-22T00:17:24.787Z,1024.91
2019-02-22T00:18:24.795Z,1024.87
2019-02-22T00:19:24.799Z,1024.90
2019-02-22T00:20:24.815Z,1024.89
2019-02-22T00:21:24.831Z,1024.92
2019-02-22T00:22:24.835Z,1024.86
2019-02-22T00:23:24.851Z,1024.89
2019-02-22T00:24:24.866Z,1024.85
2019-02-22T00:25:24.881Z,1024.82
2019-02-22T00:26:24.885Z,1024.82
2019-02-22T00:27:24.899Z,1024.81
2019-02-22T00:28:24.931Z,1024.83
2019-02-22T00:29:24.931Z,1024.85
2019-02-22T00:30:25.494Z,1024.85
2019-02-22T00:31:24.956Z,1024.87
2019-02-22T00:32:24.964Z,1024.85
2019-02-22T00:33:24.984Z,1024.88
2019-02-22T00:34:25.028Z,1024.93
2019-02-22T00:35:25.120Z,1024.98
2019-02-22T00:36:25.071Z,1024.95
2019-02-22T00:37:25.128Z,1024.97
2019-02-22T00:38:27.090Z,1025.04
2019-02-22T00:39:25.053Z,1025.00
2019-02-22T00:40:25.066Z,1025.02
2019-02-22T00:41:25.081Z,1025.03
2019-02-22T00:42:25.091Z,1025.04
2019-02-22T00:43:25.102Z,1025.09
2019-02-22T00:44:25.120Z,1025.04
2019-02-22T00:45:25.134Z,1025.11
2019-02-22T00:46:25.141Z,1025.14
2019-02-22T00:47:25.160Z,1025.13
2019-02-22T00:48:25.167Z,1025.19
2019-02-22T00:49:25.188Z,1025.22
2019-02-22T00:50:25.191Z,1025.22
2019-02-22T00:51:25.203Z,1025.18
2019-02-22T00:52:25.218Z,1025.16
2019-02-22T00:53:25.239Z,1025.16
2019-02-22T00:54:25.304Z,1025.11
2019-02-22T00:55:25.257Z,1025.16
2019-02-22T00:56:25.268Z,1025.17
2019-02-22T00:57:25.280Z,1025.17
2019-02-22T00:58:25.294Z,1025.13
2019-02-22T00:59:25.304Z,1025.20
2019-02-22T01:00:25.326Z,1025.22
2019-02-22T01:01:25.459Z,1025.21
2019-02-22T01:02:25.396Z,1025.21
2019-02-22T01:03:25.354Z,1025.27
2019-02-22T01:04:25.372Z,1025.23
2019-02-22T01:05:25.384Z,1025.24
2019-02-22T01:06:25.404Z,1025.26
2019-02-22T01:07:25.410Z,1025.23
2019-02-22T01:08:25.424Z,1025.27
2019-02-22T01:09:25.430Z,1025.30
2019-02-22T01:10:31.141Z,1025.26
2019-02-22T01:11:25.467Z,1025.33
2019-02-22T01:12:25.466Z,1025.31
2019-02-22T01:13:25.491Z,1025.35
2019-02-22T01:14:25.506Z,1025.42
2019-02-22T01:15:25.505Z,1025.39
2019-02-22T01:16:25.516Z,1025.44
2019-02-22T01:17:25.541Z,1025.48
2019-02-22T01:18:25.543Z,1025.45
2019-02-22T01:19:25.576Z,1025.50
2019-02-22T01:20:25.579Z,1025.47
2019-02-22T01:21:25.583Z,1025.46
2019-02-22T01:22:25.594Z,1025.45
2019-02-22T01:23:25.605Z,1025.45
2019-02-22T01:24:25.627Z,1025.47
2019-02-22T01:25:25.634Z,1025.49
2019-02-22T01:26:25.648Z,1025.56
2019-02-22T01:27:25.661Z,1025.52
2019-02-22T01:28:25.728Z,1025.55
2019-02-22T01:29:25.683Z,1025.54
2019-02-22T01:30:25.699Z,1025.56
2019-02-22T01:31:25.862Z,1025.57
2019-02-22T01:32:25.725Z,1025.57
2019-02-22T01:33:25.815Z,1025.62
2019-02-22T01:34:25.755Z,1025.64
2019-02-22T01:35:25.765Z,1025.64
2019-02-22T01:36:25.775Z,1025.63
2019-02-22T01:37:25.794Z,1025.67
2019-02-22T01:38:25.812Z,1025.68
2019-02-22T01:39:25.816Z,1025.71
2019-02-22T01:40:25.822Z,1025.70
2019-02-22T01:41:25.835Z,1025.72
2019-02-22T01:42:25.850Z,1025.68
2019-02-22T01:43:25.864Z,1025.68
2019-02-22T01:44:25.880Z,1025.75
2019-02-22T01:45:25.886Z,1025.74
2019-02-22T01:46:25.901Z,1025.73
2019-02-22T01:47:25.929Z,1025.75
2019-02-22T01:48:25.936Z,1025.75
2019-02-22T01:49:25.935Z,1025.75
2019-02-22T01:50:25.954Z,1025.73
2019-02-22T01:51:25.968Z,1025.71
2019-02-22T01:52:25.976Z,1025.69
2019-02-22T01:53:25.988Z,1025.69
2019-02-22T01:54:26.002Z,1025.71
2019-02-22T01:55:26.015Z,1025.73
2019-02-22T01:56:26.030Z,1025.73
2019-02-22T01:57:26.049Z,1025.78
2019-02-22T01:58:26.060Z,1025.78
2019-02-22T01:59:26.066Z,1025.78
2019-02-22T02:00:26.076Z,1025.78
2019-02-22T02:01:26.092Z,1025.80
2019-02-22T02:02:26.106Z,1025.77
2019-02-22T02:03:26.115Z,1025.78
2019-02-22T02:04:26.128Z,1025.82
2019-02-22T02:05:26.150Z,1025.83
2019-02-22T02:06:26.169Z,1025.80
2019-02-22T02:07:26.171Z,1025.76
2019-02-22T02:08:26.205Z,1025.78
2019-02-22T02:09:26.225Z,1025.82
2019-02-22T02:10:26.239Z,1025.83
2019-02-22T02:11:26.222Z,1025.79
2019-02-22T02:12:26.232Z,1025.82
2019-02-22T02:13:26.245Z,1025.79
2019-02-22T02:14:26.258Z,1025.79
2019-02-22T02:15:26.274Z,1025.77
2019-02-22T02:16:26.282Z,1025.81
2019-02-22T02:17:26.295Z,1025.84
2019-02-22T02:18:26.307Z,1025.84
2019-02-22T02:19:26.324Z,1025.83
2019-02-22T02:20:26.350Z,1025.81
2019-02-22T02:21:26.345Z,1025.79
2019-02-22T02:22:26.363Z,1025.80
2019-02-22T02:23:26.375Z,1025.83
2019-02-22T02:24:26.388Z,1025.84
2019-02-22T02:25:26.403Z,1025.86
2019-02-22T02:26:26.412Z,1025.88
2019-02-22T02:27:26.429Z,1025.86
2019-02-22T02:28:26.438Z,1025.83
2019-02-22T02:29:26.454Z,1025.82
2019-02-22T02:30:26.474Z,1025.81
2019-02-22T02:31:26.475Z,1025.83
2019-02-22T02:32:26.495Z,1025.84
2019-02-22T02:33:26.505Z,1025.78
2019-02-22T02:34:26.513Z,1025.83
2019-02-22T02:35:26.536Z,1025.82
2019-02-22T02:36:26.549Z,1025.89
2019-02-22T02:37:26.555Z,1025.88
2019-02-22T02:38:26.579Z,1025.84
2019-02-22T02:39:26.593Z,1025.82
2019-02-22T02:40:26.627Z,1025.86
2019-02-22T02:41:26.621Z,1025.83
2019-02-22T02:42:26.617Z,1025.88
2019-02-22T02:43:26.631Z,1025.91
2019-02-22T02:44:26.653Z,1025.87
2019-02-22T02:45:26.710Z,1025.83
2019-02-22T02:46:26.672Z,1025.86
2019-02-22T02:47:26.684Z,1025.88
2019-02-22T02:48:26.727Z,1025.88
2019-02-22T02:49:26.710Z,1025.84
2019-02-22T02:50:26.716Z,1025.86
2019-02-22T02:51:26.732Z,1025.89
2019-02-22T02:52:26.758Z,1025.90
2019-02-22T02:53:26.757Z,1025.92
2019-02-22T02:54:26.790Z,1025.97
2019-02-22T02:55:26.794Z,1026.00
2019-02-22T02:56:26.796Z,1026.00
2019-02-22T02:57:26.826Z,1026.00
2019-02-22T02:58:26.822Z,1026.05
2019-02-22T02:59:26.852Z,1026.11
2019-02-22T03:00:26.858Z,1026.15
2019-02-22T03:01:26.861Z,1026.15
2019-02-22T03:02:26.875Z,1026.13
2019-02-22T03:03:26.890Z,1026.18
2019-02-22T03:04:26.902Z,1026.18
2019-02-22T03:05:26.913Z,1026.19
2019-02-22T03:06:26.927Z,1026.15
2019-02-22T03:07:26.938Z,1026.20
2019-02-22T03:08:26.957Z,1026.19
2019-02-22T03:09:26.962Z,1026.22
2019-02-22T03:10:26.978Z,1026.22
2019-02-22T03:11:27.055Z,1026.29
2019-02-22T03:12:27.011Z,1026.30
2019-02-22T03:13:27.015Z,1026.32
2019-02-22T03:14:27.036Z,1026.32
2019-02-22T03:15:27.052Z,1026.36
2019-02-22T03:16:27.055Z,1026.35
2019-02-22T03:17:27.157Z,1026.41
2019-02-22T03:18:27.091Z,1026.41
2019-02-22T03:19:27.118Z,1026.46
2019-02-22T03:20:27.104Z,1026.45
2019-02-22T03:21:27.117Z,1026.49
2019-02-22T03:22:27.132Z,1026.46
2019-02-22T03:23:27.158Z,1026.46
2019-02-22T03:24:27.160Z,1026.49
2019-02-22T03:25:27.173Z,1026.54
2019-02-22T03:26:27.191Z,1026.56
2019-02-22T03:27:27.196Z,1026.56
2019-02-22T03:28:27.224Z,1026.59
2019-02-22T03:29:27.220Z,1026.58
2019-02-22T03:30:27.243Z,1026.56
2019-02-22T03:31:27.256Z,1026.59
2019-02-22T03:32:27.272Z,1026.57
2019-02-22T03:33:27.279Z,1026.55
2019-02-22T03:34:27.299Z,1026.56
2019-02-22T03:35:27.310Z,1026.57
2019-02-22T03:36:27.314Z,1026.56
2019-02-22T03:37:27.326Z,1026.51
2019-02-22T03:38:27.345Z,1026.57
2019-02-22T03:39:27.353Z,1026.65
2019-02-22T03:40:27.370Z,1026.59
2019-02-22T03:41:32.729Z,1026.64
2019-02-22T03:42:27.488Z,1026.62
2019-02-22T03:43:27.405Z,1026.63
2019-02-22T03:44:27.422Z,1026.67
2019-02-22T03:45:27.430Z,1026.62
2019-02-22T03:46:27.442Z,1026.62
2019-02-22T03:47:27.461Z,1026.70
2019-02-22T03:48:27.469Z,1026.72
2019-02-22T03:49:27.481Z,1026.77
2019-02-22T03:50:27.497Z,1026.73
2019-02-22T03:51:27.508Z,1026.76
2019-02-22T03:52:27.525Z,1026.78
2019-02-22T03:53:27.532Z,1026.81
2019-02-22T03:54:27.550Z,1026.81
2019-02-22T03:55:27.571Z,1026.80
2019-02-22T03:56:27.575Z,1026.80
2019-02-22T03:57:27.601Z,1026.81
2019-02-22T03:58:27.601Z,1026.85
2019-02-22T03:59:27.610Z,1026.84
2019-02-22T04:00:27.623Z,1026.85
2019-02-22T04:01:27.650Z,1026.86
2019-02-22T04:02:27.660Z,1026.89
2019-02-22T04:03:27.664Z,1026.90
2019-02-22T04:04:27.675Z,1026.91
2019-02-22T04:05:27.693Z,1026.92
2019-02-22T04:06:27.703Z,1026.90
2019-02-22T04:07:27.721Z,1026.93
2019-02-22T04:08:27.731Z,1026.92
2019-02-22T04:09:27.739Z,1026.90
2019-02-22T04:10:27.762Z,1026.91
2019-02-22T04:11:27.775Z,1026.90
2019-02-22T04:12:27.780Z,1026.85
2019-02-22T04:13:27.797Z,1026.86
2019-02-22T04:14:27.813Z,1026.85
2019-02-22T04:15:28.024Z,1026.89
2019-02-22T04:16:27.842Z,1026.91
2019-02-22T04:17:27.843Z,1026.90
2019-02-22T04:18:27.862Z,1026.89
2019-02-22T04:19:27.881Z,1026.86
2019-02-22T04:20:27.887Z,1026.89
2019-02-22T04:21:27.900Z,1026.90
2019-02-22T04:22:27.912Z,1026.90
2019-02-22T04:23:27.922Z,1026.87
2019-02-22T04:24:27.933Z,1026.87
2019-02-22T04:25:27.955Z,1026.90
2019-02-22T04:26:27.958Z,1026.91
2019-02-22T04:27:27.973Z,1026.90
2019-02-22T04:28:27.988Z,1026.92
2019-02-22T04:29:28.007Z,1026.93
2019-02-22T04:30:28.086Z,1026.93
2019-02-22T04:31:28.028Z,1026.95
2019-02-22T04:32:28.033Z,1026.92
2019-02-22T04:33:28.046Z,1026.95
2019-02-22T04:34:28.069Z,1026.96
2019-02-22T04:35:28.084Z,1026.94
2019-02-22T04:36:28.088Z,1026.95
2019-02-22T04:37:28.101Z,1026.97
2019-02-22T04:38:28.128Z,1026.97
2019-02-22T04:39:28.135Z,1027.00
2019-02-22T04:40:28.143Z,1027.02
2019-02-22T04:41:28.150Z,1027.03
2019-02-22T04:42:28.178Z,1027.05
2019-02-22T04:43:28.177Z,1027.05
2019-02-22T04:44:28.200Z,1027.03
2019-02-22T04:45:28.254Z,1027.07
2019-02-22T04:46:28.275Z,1027.12
2019-02-22T04:47:28.286Z,1027.11
2019-02-22T04:48:28.257Z,1027.13
2019-02-22T04:49:28.260Z,1027.14
2019-02-22T04:50:28.265Z,1027.19
2019-02-22T04:51:28.279Z,1027.20
2019-02-22T04:52:28.306Z,1027.22
2019-02-22T04:53:28.308Z,1027.22
2019-02-22T04:54:28.331Z,1027.18
2019-02-22T04:55:29.357Z,1027.18
2019-02-22T04:56:28.350Z,1027.17
2019-02-22T04:57:28.364Z,1027.18
2019-02-22T04:58:28.374Z,1027.18
2019-02-22T04:59:28.385Z,1027.16
2019-02-22T05:00:28.413Z,1027.14
2019-02-22T05:01:28.417Z,1027.13
2019-02-22T05:02:28.426Z,1027.15
2019-02-22T05:03:28.454Z,1027.16
2019-02-22T05:04:28.450Z,1027.14
2019-02-22T05:05:28.469Z,1027.12
2019-02-22T05:06:28.487Z,1027.13
2019-02-22T05:07:28.519Z,1027.13
2019-02-22T05:08:28.502Z,1027.16
2019-02-22T05:09:28.516Z,1027.20
2019-02-22T05:10:28.531Z,1027.19
2019-02-22T05:11:28.546Z,1027.11
2019-02-22T05:12:28.552Z,1027.13
2019-02-22T05:13:28.570Z,1027.12
2019-02-22T05:14:28.586Z,1027.11
2019-02-22T05:15:28.598Z,1027.13
2019-02-22T05:16:28.945Z,1027.13
2019-02-22T05:17:28.618Z,1027.14
2019-02-22T05:18:28.683Z,1027.17
2019-02-22T05:19:28.731Z,1027.16
2019-02-22T05:20:28.664Z,1027.21
2019-02-22T05:21:28.680Z,1027.20
2019-02-22T05:22:28.688Z,1027.23
2019-02-22T05:23:28.695Z,1027.20
2019-02-22T05:24:28.711Z,1027.25
2019-02-22T05:25:28.728Z,1027.25
2019-02-22T05:26:28.743Z,1027.30
2019-02-22T05:27:28.754Z,1027.30
2019-02-22T05:28:28.769Z,1027.29
2019-02-22T05:29:28.775Z,1027.30
2019-02-22T05:30:28.797Z,1027.32
2019-02-22T05:31:28.816Z,1027.34
2019-02-22T05:32:28.866Z,1027.32
2019-02-22T05:33:28.827Z,1027.34
2019-02-22T05:34:28.898Z,1027.33
2019-02-22T05:35:28.857Z,1027.35
2019-02-22T05:36:28.877Z,1027.39
2019-02-22T05:37:28.891Z,1027.42
2019-02-22T05:38:28.909Z,1027.43
2019-02-22T05:39:28.904Z,1027.40
2019-02-22T05:40:28.917Z,1027.43
2019-02-22T05:41:28.941Z,1027.46
2019-02-22T05:42:28.960Z,1027.44
2019-02-22T05:43:29.001Z,1027.47
2019-02-22T05:44:28.976Z,1027.46
2019-02-22T05:45:29.057Z,1027.49
2019-02-22T05:46:29.014Z,1027.50
2019-02-22T05:47:29.039Z,1027.51
2019-02-22T05:48:29.036Z,1027.48
2019-02-22T05:50:29.051Z,1027.55
2019-02-22T05:51:29.089Z,1027.58
2019-02-22T05:52:29.082Z,1027.60
2019-02-22T05:53:29.085Z,1027.62
2019-02-22T05:54:29.120Z,1027.67
2019-02-22T05:55:29.113Z,1027.67
2019-02-22T05:56:29.139Z,1027.66
2019-02-22T05:57:29.138Z,1027.68
2019-02-22T05:58:29.147Z,1027.74
2019-02-22T05:59:29.159Z,1027.69
2019-02-22T06:00:29.171Z,1027.77
2019-02-22T06:01:29.459Z,1027.76
2019-02-22T06:02:29.197Z,1027.77
2019-02-22T06:03:29.223Z,1027.73
2019-02-22T06:04:29.247Z,1027.77
2019-02-22T06:05:29.335Z,1027.77
2019-02-22T06:06:29.248Z,1027.81
2019-02-22T06:07:29.265Z,1027.87
2019-02-22T06:08:29.273Z,1027.90
2019-02-22T06:09:29.314Z,1027.90
2019-02-22T06:10:29.320Z,1027.91
2019-02-22T06:11:29.323Z,1027.92
2019-02-22T06:12:34.572Z,1027.92
2019-02-22T06:13:29.339Z,1027.95
2019-02-22T06:14:29.362Z,1027.94
2019-02-22T06:15:31.414Z,1028.00
2019-02-22T06:16:29.379Z,1028.00
2019-02-22T06:17:29.404Z,1028.01
2019-02-22T06:18:29.404Z,1028.06
2019-02-22T06:19:29.422Z,1028.02
2019-02-22T06:20:29.439Z,1028.05
2019-02-22T06:21:29.442Z,1028.02
2019-02-22T06:22:30.123Z,1028.07
2019-02-22T06:23:29.501Z,1028.04
2019-02-22T06:24:29.496Z,1028.06
2019-02-22T06:25:29.504Z,1028.04
2019-02-22T06:26:30.435Z,1028.08
2019-02-22T06:27:29.528Z,1028.07
2019-02-22T06:28:29.544Z,1028.05
2019-02-22T06:29:29.552Z,1028.09
2019-02-22T06:30:29.562Z,1028.14
2019-02-22T06:31:29.592Z,1028.13
2019-02-22T06:32:29.591Z,1028.15
2019-02-22T06:33:29.611Z,1028.20
2019-02-22T06:34:29.630Z,1028.21
2019-02-22T06:35:29.627Z,1028.23
2019-02-22T06:36:29.648Z,1028.22
2019-02-22T06:37:29.751Z,1028.25
2019-02-22T06:38:29.667Z,1028.28
2019-02-22T06:39:29.768Z,1028.27
2019-02-22T06:40:29.693Z,1028.27
2019-02-22T06:41:29.723Z,1028.30
2019-02-22T06:42:30.208Z,1028.32
2019-02-22T06:43:29.729Z,1028.33
2019-02-22T06:44:29.753Z,1028.32
2019-02-22T06:45:29.757Z,1028.31
2019-02-22T06:46:29.769Z,1028.30
2019-02-22T06:47:29.784Z,1028.30
2019-02-22T06:48:29.797Z,1028.25
2019-02-22T06:49:29.819Z,1028.34
2019-02-22T06:50:33.778Z,1028.37
2019-02-22T06:51:29.834Z,1028.33
2019-02-22T06:52:29.926Z,1028.38
2019-02-22T06:53:29.862Z,1028.37
2019-02-22T06:54:29.878Z,1028.41
2019-02-22T06:55:29.903Z,1028.42
2019-02-22T06:56:29.904Z,1028.43
2019-02-22T06:57:29.911Z,1028.45
2019-02-22T06:58:29.933Z,1028.45
2019-02-22T06:59:29.949Z,1028.43
2019-02-22T07:00:29.988Z,1028.39
2019-02-22T07:01:29.970Z,1028.42
2019-02-22T07:02:29.986Z,1028.37
2019-02-22T07:03:30.039Z,1028.37
2019-02-22T07:04:30.010Z,1028.38
2019-02-22T07:05:30.022Z,1028.36
2019-02-22T07:06:30.033Z,1028.40
2019-02-22T07:07:30.049Z,1028.43
2019-02-22T07:09:30.084Z,1028.50
2019-02-22T07:10:30.079Z,1028.49
2019-02-22T07:11:30.207Z,1028.50
2019-02-22T07:12:30.106Z,1028.55
2019-02-22T07:13:32.407Z,1028.55
2019-02-22T07:14:30.134Z,1028.56
2019-02-22T07:15:30.154Z,1028.59
2019-02-22T07:16:30.186Z,1028.58
2019-02-22T07:17:30.174Z,1028.63
2019-02-22T07:18:30.189Z,1028.64
2019-02-22T07:19:30.223Z,1028.66
2019-02-22T07:20:30.216Z,1028.66
2019-02-22T07:21:43.740Z,1028.64
2019-02-22T07:22:30.253Z,1028.68
2019-02-22T07:23:30.266Z,1028.68
2019-02-22T07:24:30.265Z,1028.74
2019-02-22T07:25:30.285Z,1028.70
2019-02-22T07:26:30.300Z,1028.75
2019-02-22T07:27:30.304Z,1028.74
2019-02-22T07:28:30.334Z,1028.81
2019-02-22T07:29:30.329Z,1028.81
2019-02-22T07:30:30.348Z,1028.84
2019-02-22T07:31:30.358Z,1028.87
2019-02-22T07:32:30.370Z,1028.89
2019-02-22T07:33:30.386Z,1028.88
2019-02-22T07:34:30.400Z,1028.95
2019-02-22T07:35:30.420Z,1028.98
2019-02-22T07:36:30.430Z,1028.94
2019-02-22T07:37:30.472Z,1029.00
2019-02-22T07:38:30.448Z,1029.03
2019-02-22T07:39:30.465Z,1029.01
2019-02-22T07:40:30.482Z,1029.00
2019-02-22T07:41:30.546Z,1029.02
2019-02-22T07:42:30.506Z,1029.06
2019-02-22T07:43:30.517Z,1029.10
2019-02-22T07:44:30.525Z,1029.11
2019-02-22T07:45:30.542Z,1029.13
2019-02-22T07:46:30.556Z,1029.15
2019-02-22T07:47:30.569Z,1029.13
2019-02-22T07:48:30.588Z,1029.09
2019-02-22T07:49:30.604Z,1029.11
2019-02-22T07:50:30.606Z,1029.13
2019-02-22T07:51:30.620Z,1029.14
2019-02-22T07:52:30.636Z,1029.18
2019-02-22T07:53:30.642Z,1029.19
2019-02-22T07:54:30.664Z,1029.24
2019-02-22T07:55:30.687Z,1029.22
2019-02-22T07:56:30.771Z,1029.25
2019-02-22T07:57:30.699Z,1029.27
2019-02-22T07:58:30.713Z,1029.31
2019-02-22T07:59:30.727Z,1029.32
2019-02-22T08:00:30.737Z,1029.33
2019-02-22T08:01:30.755Z,1029.31
2019-02-22T08:02:30.772Z,1029.36
2019-02-22T08:03:30.782Z,1029.35
2019-02-22T08:04:30.789Z,1029.38
2019-02-22T08:05:30.810Z,1029.36
2019-02-22T08:06:30.834Z,1029.37
2019-02-22T08:07:30.861Z,1029.46
2019-02-22T08:08:30.845Z,1029.49
2019-02-22T08:09:30.904Z,1029.49
2019-02-22T08:10:30.993Z,1029.52
2019-02-22T08:11:30.904Z,1029.53
2019-02-22T08:12:30.935Z,1029.56
2019-02-22T08:13:30.966Z,1029.57
2019-02-22T08:14:30.933Z,1029.58
2019-02-22T08:15:30.940Z,1029.59
2019-02-22T08:16:31.836Z,1029.61
2019-02-22T08:17:31.731Z,1029.62
2019-02-22T08:21:31.018Z,1029.64
2019-02-22T08:22:31.029Z,1029.62
2019-02-22T08:23:31.053Z,1029.65
2019-02-22T08:24:31.075Z,1029.63
2019-02-22T08:26:31.092Z,1029.65
2019-02-22T08:27:31.452Z,1029.68
2019-02-22T08:28:31.171Z,1029.68
2019-02-22T08:29:31.121Z,1029.64
2019-02-22T08:30:31.176Z,1029.66
2019-02-22T08:32:31.162Z,1029.69
2019-02-22T08:33:31.171Z,1029.68
2019-02-22T08:34:31.185Z,1029.69
2019-02-22T08:35:31.204Z,1029.69
2019-02-22T08:36:31.211Z,1029.75
2019-02-22T08:37:31.225Z,1029.77
2019-02-22T08:38:31.244Z,1029.78
2019-02-22T08:39:31.254Z,1029.75
2019-02-22T08:40:31.269Z,1029.75
2019-02-22T08:41:32.029Z,1029.76
2019-02-22T08:42:31.299Z,1029.74
2019-02-22T08:43:31.995Z,1029.74
2019-02-22T08:44:31.385Z,1029.81
2019-02-22T08:45:31.337Z,1029.79
2019-02-22T08:46:31.345Z,1029.85
2019-02-22T08:47:31.387Z,1029.85
2019-02-22T08:48:31.391Z,1029.85
2019-02-22T08:49:31.402Z,1029.85
2019-02-22T08:50:31.410Z,1029.86
2019-02-22T08:51:31.424Z,1029.89
2019-02-22T08:52:31.433Z,1029.85
2019-02-22T08:53:31.452Z,1029.89
2019-02-22T08:54:31.457Z,1029.89
2019-02-22T08:55:31.465Z,1029.91
2019-02-22T08:56:31.476Z,1029.95
2019-02-22T08:57:31.513Z,1029.97
2019-02-22T08:58:31.525Z,1030.00
2019-02-22T08:59:31.524Z,1029.99
2019-02-22T09:00:31.562Z,1030.00
2019-02-22T09:01:31.571Z,1030.01
2019-02-22T09:02:31.559Z,1030.08
2019-02-22T09:03:31.630Z,1030.12
2019-02-22T09:04:31.613Z,1030.09
2019-02-22T09:05:31.608Z,1030.15
2019-02-22T09:06:31.672Z,1030.17
2019-02-22T09:07:31.633Z,1030.13
2019-02-22T09:08:32.150Z,1030.20
2019-02-22T09:09:31.655Z,1030.16
2019-02-22T09:10:31.665Z,1030.18
2019-02-22T09:11:31.699Z,1030.20
2019-02-22T09:12:31.706Z,1030.23
2019-02-22T09:13:42.824Z,1030.20
2019-02-22T09:14:31.726Z,1030.23
2019-02-22T09:15:31.779Z,1030.26
2019-02-22T09:16:31.927Z,1030.32
2019-02-22T09:17:32.357Z,1030.32
2019-02-22T09:19:31.789Z,1030.37
2019-02-22T09:20:31.809Z,1030.42
2019-02-22T09:21:31.848Z,1030.49
2019-02-22T09:22:31.834Z,1030.45
2019-02-22T09:23:31.884Z,1030.50
2019-02-22T09:24:31.860Z,1030.52
2019-02-22T09:25:31.876Z,1030.54
2019-02-22T09:26:31.892Z,1030.57
2019-02-22T09:27:31.993Z,1030.60
2019-02-22T09:28:31.914Z,1030.57
2019-02-22T09:29:31.926Z,1030.63
2019-02-22T09:30:31.998Z,1030.64
2019-02-22T09:31:31.952Z,1030.62
2019-02-22T09:32:32.017Z,1030.64
2019-02-22T09:33:31.987Z,1030.67
2019-02-22T09:34:31.993Z,1030.72
2019-02-22T09:35:32.097Z,1030.75
2019-02-22T09:36:32.028Z,1030.72
2019-02-22T09:37:32.039Z,1030.74
2019-02-22T09:38:32.050Z,1030.76
2019-02-22T09:39:32.172Z,1030.75
2019-02-22T09:40:32.086Z,1030.79
2019-02-22T09:41:32.091Z,1030.77
2019-02-22T09:42:32.123Z,1030.79
2019-02-22T09:43:32.121Z,1030.77
2019-02-22T09:44:32.146Z,1030.81
2019-02-22T09:45:32.288Z,1030.83
2019-02-22T09:46:32.172Z,1030.84
2019-02-22T09:47:32.190Z,1030.87
2019-02-22T09:48:32.201Z,1030.87
2019-02-22T09:49:32.238Z,1030.89
2019-02-22T09:50:32.270Z,1030.88
2019-02-22T09:51:32.248Z,1030.91
2019-02-22T09:52:32.243Z,1030.89
2019-02-22T09:53:32.258Z,1030.89
2019-02-22T09:54:32.274Z,1030.92
2019-02-22T09:55:32.287Z,1030.96
2019-02-22T09:56:32.305Z,1030.98
2019-02-22T09:57:32.311Z,1030.97
2019-02-22T09:58:32.397Z,1030.97
2019-02-22T09:59:32.537Z,1030.96
2019-02-22T10:00:32.357Z,1030.97
2019-02-22T10:01:32.378Z,1030.95
2019-02-22T10:02:32.380Z,1031.00
2019-02-22T10:03:32.430Z,1030.97
2019-02-22T10:04:32.417Z,1030.96
2019-02-22T10:05:32.430Z,1030.94
2019-02-22T10:06:32.448Z,1030.92
2019-02-22T10:07:32.868Z,1030.90
2019-02-22T10:08:32.479Z,1030.94
2019-02-22T10:09:32.803Z,1030.96
2019-02-22T10:10:32.494Z,1030.90
2019-02-22T10:11:32.508Z,1030.89
2019-02-22T10:12:32.581Z,1030.87
2019-02-22T10:13:32.692Z,1030.89
2019-02-22T10:14:32.627Z,1030.86
2019-02-22T10:15:32.765Z,1030.87
2019-02-22T10:16:32.577Z,1030.91
2019-02-22T10:17:32.591Z,1030.88
2019-02-22T10:18:32.623Z,1030.89
2019-02-22T10:19:32.760Z,1030.92
2019-02-22T10:20:32.673Z,1030.91
2019-02-22T10:21:32.865Z,1030.86
2019-02-22T10:22:32.660Z,1030.84
2019-02-22T10:23:32.725Z,1030.86
2019-02-22T10:24:32.697Z,1030.84
2019-02-22T10:25:32.698Z,1030.87
2019-02-22T10:26:32.716Z,1030.85
2019-02-22T10:27:32.745Z,1030.84
2019-02-22T10:28:32.777Z,1030.81
2019-02-22T10:29:32.766Z,1030.86
2019-02-22T10:30:32.780Z,1030.86
2019-02-22T10:31:32.965Z,1030.88
2019-02-22T10:32:32.874Z,1030.89
2019-02-22T10:33:36.695Z,1030.88
2019-02-22T10:34:32.834Z,1030.88
2019-02-22T10:35:32.854Z,1030.94
2019-02-22T10:36:32.876Z,1030.95
2019-02-22T10:37:33.171Z,1030.97
2019-02-22T10:38:35.709Z,1030.98
2019-02-22T10:39:32.904Z,1030.98
2019-02-22T10:40:32.915Z,1031.00
2019-02-22T10:41:32.937Z,1031.04
2019-02-22T10:42:32.939Z,1031.05
2019-02-22T10:43:32.964Z,1031.05
2019-02-22T10:44:32.964Z,1031.07
2019-02-22T10:45:32.992Z,1031.04
2019-02-22T10:46:33.015Z,1031.07
2019-02-22T10:47:33.028Z,1031.11
2019-02-22T10:48:33.041Z,1031.08
2019-02-22T10:49:33.036Z,1031.11
2019-02-22T10:50:33.063Z,1031.05
2019-02-22T10:51:34.175Z,1031.08
2019-02-22T10:52:33.124Z,1031.08
2019-02-22T10:53:33.094Z,1031.11
2019-02-22T10:54:33.135Z,1031.14
2019-02-22T10:55:33.153Z,1031.13
2019-02-22T10:56:33.152Z,1031.11
2019-02-22T10:58:33.177Z,1031.15
2019-02-22T10:59:33.295Z,1031.19
2019-02-22T11:00:33.210Z,1031.12
2019-02-22T11:01:33.251Z,1031.15
2019-02-22T11:02:33.241Z,1031.12
2019-02-22T11:03:33.272Z,1031.09
2019-02-22T11:04:33.265Z,1031.15
2019-02-22T11:05:33.299Z,1031.13
2019-02-22T11:06:33.315Z,1031.16
2019-02-22T11:08:33.391Z,1031.12
2019-02-22T11:09:33.321Z,1031.11
2019-02-22T11:10:33.340Z,1031.13
2019-02-22T11:11:33.365Z,1031.12
2019-02-22T11:12:33.411Z,1031.13
2019-02-22T11:13:33.377Z,1031.13
2019-02-22T11:14:33.393Z,1031.15
2019-02-22T11:15:33.478Z,1031.14
2019-02-22T11:16:33.441Z,1031.19
2019-02-22T11:17:33.452Z,1031.18
2019-02-22T11:18:33.489Z,1031.19
2019-02-22T11:19:33.507Z,1031.18
2019-02-22T11:20:33.505Z,1031.22
2019-02-22T11:21:33.553Z,1031.25
2019-02-22T11:22:33.516Z,1031.27
2019-02-22T11:23:33.539Z,1031.30
2019-02-22T11:24:33.709Z,1031.27
2019-02-22T11:25:33.577Z,1031.27
2019-02-22T11:26:33.569Z,1031.29
2019-02-22T11:27:33.577Z,1031.32
2019-02-22T11:28:33.605Z,1031.30
2019-02-22T11:29:33.603Z,1031.36
2019-02-22T11:30:33.635Z,1031.33
2019-02-22T11:31:33.638Z,1031.37
2019-02-22T11:32:33.645Z,1031.38
2019-02-22T11:33:33.708Z,1031.40
2019-02-22T11:34:33.690Z,1031.39
2019-02-22T11:35:33.713Z,1031.37
2019-02-22T11:36:33.725Z,1031.36
2019-02-22T11:37:33.719Z,1031.35
2019-02-22T11:38:34.236Z,1031.37
2019-02-22T11:39:33.756Z,1031.33
2019-02-22T11:40:33.840Z,1031.35
2019-02-22T11:41:33.783Z,1031.36
2019-02-22T11:42:34.051Z,1031.40
2019-02-22T11:43:33.806Z,1031.38
2019-02-22T11:44:40.214Z,1031.35
2019-02-22T11:45:33.826Z,1031.35
2019-02-22T11:46:33.895Z,1031.34
2019-02-22T11:47:33.869Z,1031.38
2019-02-22T11:48:33.889Z,1031.38
2019-02-22T11:49:33.882Z,1031.38
2019-02-22T11:50:34.033Z,1031.41
2019-02-22T11:51:33.919Z,1031.37
2019-02-22T11:52:34.389Z,1031.37
2019-02-22T11:53:33.964Z,1031.36
2019-02-22T11:54:33.954Z,1031.40
2019-02-22T11:55:33.969Z,1031.38
2019-02-22T11:56:33.981Z,1031.39
2019-02-22T11:57:34.004Z,1031.44
2019-02-22T11:58:34.019Z,1031.41
2019-02-22T11:59:34.029Z,1031.45
2019-02-22T12:00:34.043Z,1031.43
2019-02-22T12:01:34.062Z,1031.40
2019-02-22T12:02:34.067Z,1031.40
2019-02-22T12:03:34.087Z,1031.42
2019-02-22T12:04:34.102Z,1031.39
2019-02-22T12:05:34.141Z,1031.43
2019-02-22T12:06:34.134Z,1031.41
2019-02-22T12:07:34.139Z,1031.39
2019-02-22T12:08:34.158Z,1031.41
2019-02-22T12:09:34.185Z,1031.39
2019-02-22T12:10:34.190Z,1031.42
2019-02-22T12:11:34.196Z,1031.39
2019-02-22T12:12:34.309Z,1031.41
2019-02-22T12:13:34.236Z,1031.37
2019-02-22T12:14:34.241Z,1031.40
2019-02-22T12:15:34.285Z,1031.39